Terminal Aerodrome Forecast
Issued by NWS

Home | Current Version | Previous Version | Text Only | Print | Product List | Glossary On
Versions: 1 2 3 4 5 6 7 8 9 10 11 12 13 14
070
FTAK31 PAJN 140520
TAFAGY
TAF
PAGY 140520Z 1406/1506 VRB04KT P6SM VCSH BKN035 OVC060
     FM141500 VRB05KT P6SM -SHRA SCT025 OVC050
     FM142100 21005KT P6SM VCSH SCT030 OVC060
      AMD LTD TO CLD VIS AND WIND=

USA.gov is the U.S. government's official web portal to all federal, state and local government web resources and services.